Terminal Aerodrome Forecast
Issued by NWS Portland, ME

Home | Current Version | Previous Version | Text Only | Print | Product List | Glossary On
Versions: 1 2 3 4 5 6 7 8 9 10 11 12 13 14 15 16 17 18
000
FTUS41 KGYX 260255 AAA
TAFCON
TAF AMD
KCON 260255Z 2603/2624 27007KT P6SM SKC
     FM260700 02005KT P6SM OVC060
     FM261200 VRB03KT 3SM -SN OVC050
     FM261500 02004KT 2SM -SN OVC025
     FM262000 04013KT 1/4SM SN FG OVC003=

USA.gov is the U.S. government's official web portal to all federal, state and local government web resources and services.